Time;durP1;ratioP1;P1;durP2;ratioP2;P2;SDS_P1;SDS_P2;PMS_P1;PMS_P2;Temp;Humidity;BMP_temperature;BMP_pressure;BME280_temperature;BME280_humidity;BME280_pressure;Samples;Min_cycle;Max_cycle;Signal;HPM_P1;HPM_P2
2022/08/07 00:01:27;;;;;;;29.15;20.70;;;18.10;70.20;;;14.03;96.49;96009.75;4916330;29;20049;-46
2022/08/07 00:03:52;;;;;;;28.77;20.77;;;18.10;70.00;;;14.01;96.71;96004.69;4916479;29;20018;-44
2022/08/07 00:06:18;;;;;;;28.10;20.77;;;18.10;70.10;;;14.02;96.52;96002.78;4932323;29;20042;-48
2022/08/07 00:08:50;;;;;;;29.60;20.73;;;18.10;70.10;;;14.02;96.56;95998.25;4933324;29;20034;-46
2022/08/07 00:11:16;;;;;;;29.67;20.85;;;18.10;70.40;;;14.04;96.56;96005.97;4933839;29;20086;-46
2022/08/07 00:13:44;;;;;;;26.98;20.92;;;18.10;70.30;;;14.05;96.48;96011.06;4933364;29;20490;-50
2022/08/07 00:16:11;;;;;;;28.67;21.95;;;18.10;70.30;;;14.06;96.57;95998.47;4916422;29;20038;-45
2022/08/07 00:18:38;;;;;;;28.33;20.42;;;18.10;70.40;;;14.10;96.42;95999.53;4933059;29;20023;-47
2022/08/07 00:21:08;;;;;;;26.50;19.85;;;18.10;70.50;;;14.16;96.25;95987.69;4919092;29;20406;-47
2022/08/07 00:23:39;;;;;;;27.60;20.48;;;18.10;70.70;;;14.19;96.00;95973.75;4932313;29;20082;-48
2022/08/07 00:26:08;;;;;;;26.73;19.52;;;18.10;70.70;;;14.23;95.43;95969.47;4900607;29;20494;-49
2022/08/07 00:28:38;;;;;;;28.60;19.83;;;18.20;70.70;;;14.25;95.59;95975.31;4916489;29;20034;-48
2022/08/07 00:31:09;;;;;;;27.90;19.38;;;18.20;70.60;;;14.29;95.40;95970.19;4916273;29;20077;-44
2022/08/07 00:33:40;;;;;;;27.92;21.00;;;18.20;70.70;;;14.30;95.21;95966.47;4932144;29;20109;-45
2022/08/07 00:36:24;;;;;;;28.17;20.30;;;18.20;70.60;;;14.29;95.34;95968.34;4916373;29;20031;-44
2022/08/07 00:38:59;;;;;;;27.23;20.80;;;18.20;70.70;;;14.29;95.58;95964.84;4900134;29;20023;-46
2022/08/07 00:41:34;;;;;;;28.73;20.73;;;18.30;70.70;;;14.28;95.75;95958.69;4915995;29;20030;-44
2022/08/07 00:44:00;;;;;;;27.90;21.23;;;18.30;70.70;;;14.28;95.58;95958.69;4915950;29;20026;-45
2022/08/07 00:46:26;;;;;;;27.83;20.02;;;18.30;70.50;;;14.33;94.73;95960.56;4915968;29;20047;-46
2022/08/07 00:49:08;;;;;;;28.60;21.73;;;18.30;70.50;;;14.30;94.57;95961.91;4932779;29;20015;-45
2022/08/07 00:51:37;;;;;;;26.05;19.10;;;18.30;70.50;;;14.24;94.24;95954.97;4933088;29;20118;-46
2022/08/07 00:54:04;;;;;;;28.95;21.77;;;18.20;70.40;;;14.21;94.63;95949.38;4931656;29;20030;-45
2022/08/07 00:56:30;;;;;;;26.65;20.52;;;18.20;70.30;;;14.17;94.54;95945.66;4915874;29;20027;-46
2022/08/07 00:58:57;;;;;;;30.92;21.15;;;18.20;70.30;;;14.11;94.89;95942.22;4931802;29;20761;-46
2022/08/07 01:01:23;;;;;;;29.65;21.73;;;18.20;70.40;;;14.10;95.52;95943.28;4933233;29;20027;-44
2022/08/07 01:03:50;;;;;;;26.55;20.38;;;18.20;70.40;;;14.10;95.73;95948.63;4915905;29;20497;-45
2022/08/07 01:06:18;;;;;;;26.40;20.60;;;18.10;70.40;;;14.11;95.32;95951.03;4915957;29;20065;-45
2022/08/07 01:08:46;;;;;;;27.60;21.10;;;18.10;70.60;;;14.06;96.13;95942.22;4932687;29;20027;-46
2022/08/07 01:11:15;;;;;;;28.23;20.38;;;18.10;70.70;;;14.07;95.67;95936.63;4916071;29;20027;-44
2022/08/07 01:13:44;;;;;;;28.08;20.95;;;18.10;70.70;;;14.08;96.16;95934.72;4932736;29;20051;-45
2022/08/07 01:16:10;;;;;;;28.10;20.92;;;18.10;70.80;;;14.11;96.00;95926.94;4931921;29;20422;-45
2022/08/07 01:18:37;;;;;;;25.02;19.30;;;18.10;70.80;;;14.15;95.48;95934.41;4931402;29;20387;-47
2022/08/07 01:21:20;;;;;;;26.63;20.02;;;18.10;70.80;;;14.14;95.54;95936.28;4924181;29;20449;-46
2022/08/07 01:23:47;;;;;;;24.30;19.20;;;18.10;71.00;;;14.17;95.39;95926.91;4932700;29;20379;-44
2022/08/07 01:26:21;;;;;;;23.92;18.08;;;18.10;70.80;;;14.17;95.14;95924.22;4930473;29;20066;-44
2022/08/07 01:28:50;;;;;;;29.40;19.60;;;18.20;70.90;;;14.16;95.04;95915.38;4915764;29;20018;-43
2022/08/07 01:31:19;;;;;;;30.65;19.60;;;18.20;70.80;;;14.14;95.19;95920.22;4916112;29;20089;-45
2022/08/07 01:33:46;;;;;;;27.45;20.02;;;18.20;70.90;;;14.11;95.20;95916.22;4916499;29;20031;-44
2022/08/07 01:36:16;;;;;;;25.10;19.77;;;18.10;70.80;;;14.07;95.15;95917.03;4916283;29;20045;-44
2022/08/07 01:38:51;;;;;;;24.50;19.90;;;18.10;70.70;;;14.05;95.04;95919.22;4931844;29;20110;-45
2022/08/07 01:41:22;;;;;;;25.55;19.35;;;18.10;70.90;;;14.05;94.94;95911.97;4915809;29;20062;-43
2022/08/07 01:43:54;;;;;;;28.08;18.30;;;18.10;70.80;;;14.03;95.12;95913.31;4932032;29;20026;-43
2022/08/07 01:46:20;;;;;;;23.42;18.20;;;18.10;70.80;;;14.00;95.35;95914.69;4931289;29;20101;-44
2022/08/07 01:48:49;;;;;;;25.92;18.60;;;18.00;70.70;;;14.01;94.96;95910.16;4931357;29;20104;-44
2022/08/07 01:51:25;;;;;;;22.25;17.85;;;18.00;70.80;;;14.02;95.09;95906.38;4932781;29;20457;-43
2022/08/07 01:54:06;;;;;;;23.17;17.35;;;18.10;71.00;;;14.06;94.81;95907.41;4915479;29;20015;-44
2022/08/07 01:57:01;;;;;;;20.35;17.08;;;18.00;71.00;;;14.06;94.92;95902.84;4931468;29;20449;-44
2022/08/07 01:59:42;;;;;;;26.15;17.48;;;18.00;70.90;;;14.06;94.73;95907.41;4931543;29;20059;-44
2022/08/07 02:02:21;;;;;;;21.92;17.08;;;18.00;70.90;;;14.08;94.43;95907.94;4931683;29;20398;-44
2022/08/07 02:05:08;;;;;;;21.15;17.40;;;18.00;70.90;;;14.09;94.19;95906.84;4916583;29;20031;-44
2022/08/07 02:07:53;;;;;;;21.55;17.02;;;18.10;71.00;;;14.09;94.40;95906.84;4934766;29;20125;-44
2022/08/07 02:10:25;;;;;;;21.55;16.35;;;18.10;70.90;;;14.11;94.12;95910.88;4934450;29;20487;-46
2022/08/07 02:12:58;;;;;;;24.55;18.52;;;18.10;70.80;;;14.08;93.93;95905.25;4918755;29;20550;-50
2022/08/07 02:15:31;;;;;;;24.45;17.65;;;18.10;70.70;;;14.03;94.06;95910.66;4934515;29;20507;-46
2022/08/07 02:18:03;;;;;;;21.63;17.23;;;18.10;70.70;;;13.97;94.47;95912.56;4918287;29;20580;-46
2022/08/07 02:20:35;;;;;;;24.20;17.50;;;18.00;70.60;;;13.96;94.64;95921.66;4934315;29;20081;-43
2022/08/07 02:23:11;;;;;;;23.63;18.45;;;18.00;70.70;;;13.95;94.12;95917.41;4935649;29;20023;-46
2022/08/07 02:25:46;;;;;;;23.40;18.80;;;18.00;70.70;;;13.89;94.76;95919.31;4933962;29;20035;-49
2022/08/07 02:28:15;;;;;;;26.48;18.48;;;18.00;70.70;;;13.86;94.86;95919.06;4918082;29;20034;-48
2022/08/07 02:30:44;;;;;;;23.58;18.67;;;18.00;70.70;;;13.84;95.49;95911.28;4934375;29;20528;-47
2022/08/07 02:33:14;;;;;;;23.27;17.98;;;17.90;70.70;;;13.85;95.83;95909.41;4934329;29;20398;-44
2022/08/07 02:35:50;;;;;;;25.80;18.58;;;17.90;70.90;;;13.88;95.71;95903.50;4918347;29;20479;-44
2022/08/07 02:38:21;;;;;;;23.85;19.42;;;17.90;71.00;;;13.88;95.62;95909.69;4933967;29;20033;-46
2022/08/07 02:40:55;;;;;;;23.42;17.63;;;17.90;71.00;;;13.89;95.54;95910.47;4918042;29;20034;-44
2022/08/07 02:43:23;;;;;;;26.65;18.58;;;17.90;71.10;;;13.87;95.67;95908.06;4918144;29;20030;-47
2022/08/07 02:45:53;;;;;;;24.38;18.40;;;17.90;71.00;;;13.86;95.15;95905.69;4918131;29;20042;-43
2022/08/07 02:48:19;;;;;;;27.52;18.92;;;17.90;71.00;;;13.85;94.66;95909.41;4917983;29;20098;-47
2022/08/07 02:50:51;;;;;;;24.95;18.88;;;17.90;70.90;;;13.75;95.15;95910.28;4917958;29;20118;-46
2022/08/07 02:53:30;;;;;;;25.40;18.13;;;17.90;71.00;;;13.68;95.64;95904.44;4933554;29;20023;-45
2022/08/07 02:56:03;;;;;;;22.77;18.25;;;17.80;71.00;;;13.65;95.48;95911.13;4917993;29;20055;-47
2022/08/07 02:58:41;;;;;;;23.48;18.67;;;17.80;71.00;;;13.59;96.29;95890.81;4935291;29;20230;-43
2022/08/07 03:01:10;;;;;;;29.02;19.85;;;17.80;71.00;;;13.57;96.12;95887.63;4918128;29;20050;-47
2022/08/07 03:03:40;;;;;;;26.60;19.48;;;17.70;70.90;;;13.57;96.07;95879.59;4933552;29;20050;-47
2022/08/07 03:06:14;;;;;;;29.48;18.88;;;17.70;71.10;;;13.56;95.80;95879.88;4901983;29;20410;-45
2022/08/07 03:08:40;;;;;;;24.42;19.05;;;17.70;71.20;;;13.50;96.06;95892.47;4932957;29;20546;-44
2022/08/07 03:11:08;;;;;;;23.73;18.75;;;17.60;71.00;;;13.45;96.80;95892.50;4933774;29;20146;-46
2022/08/07 03:13:39;;;;;;;26.25;18.83;;;17.60;71.20;;;13.45;96.75;95889.03;4933422;29;20023;-47
2022/08/07 03:16:05;;;;;;;25.58;18.77;;;17.60;71.30;;;13.45;96.54;95889.84;4933743;29;20062;-44
2022/08/07 03:18:38;;;;;;;27.48;18.90;;;17.60;71.30;;;13.45;96.90;95897.06;4932999;29;20027;-44
2022/08/07 03:21:06;;;;;;;23.58;18.42;;;17.60;71.50;;;13.43;97.03;95903.47;4944020;28;20030;-45
2022/08/07 03:23:41;;;;;;;23.58;18.35;;;17.60;71.40;;;13.47;97.03;95897.56;4933119;29;20121;-44
2022/08/07 03:26:13;;;;;;;24.02;18.02;;;17.50;71.60;;;13.47;96.81;95898.38;4917381;29;20375;-51
2022/08/07 03:28:43;;;;;;;22.23;18.38;;;17.50;71.50;;;13.47;96.92;95901.03;4931933;29;20055;-46
2022/08/07 03:31:20;;;;;;;26.23;18.25;;;17.60;71.60;;;13.47;96.58;95901.03;4933485;29;20272;-46
2022/08/07 03:34:08;;;;;;;26.40;17.92;;;17.50;71.50;;;13.44;96.61;95904.28;4917162;29;20522;-44
2022/08/07 03:36:40;;;;;;;24.48;17.38;;;17.50;71.60;;;13.42;96.77;95903.75;4917109;29;20031;-46
2022/08/07 03:39:15;;;;;;;28.43;18.20;;;17.50;71.50;;;13.43;96.68;95892.78;4916995;29;20034;-44
2022/08/07 03:41:41;;;;;;;24.40;18.55;;;17.50;71.50;;;13.43;96.61;95892.78;4933049;29;20029;-44
2022/08/07 03:44:11;;;;;;;24.15;19.00;;;17.50;71.50;;;13.46;96.37;95885.28;4917091;29;20014;-47
2022/08/07 03:46:39;;;;;;;27.88;20.02;;;17.50;71.60;;;13.45;96.83;95892.50;4916779;29;20102;-48
2022/08/07 03:49:09;;;;;;;23.48;18.77;;;17.50;71.60;;;13.48;96.74;95885.81;4917580;29;20051;-44
2022/08/07 03:51:40;;;;;;;28.58;20.83;;;17.50;71.80;;;13.51;96.82;95885.25;4901099;29;20482;-44
2022/08/07 03:54:06;;;;;;;29.83;19.80;;;17.50;71.90;;;13.56;96.91;95890.56;4932964;29;20031;-47
2022/08/07 03:56:36;;;;;;;24.13;18.83;;;17.60;71.90;;;13.57;96.79;95884.97;4933544;29;20053;-45
2022/08/07 03:59:13;;;;;;;23.67;18.65;;;17.60;71.90;;;13.59;96.65;95890.81;4917086;29;20015;-45
2022/08/07 04:01:43;;;;;;;27.02;18.98;;;17.70;72.00;;;13.61;96.63;95887.88;4932517;29;20067;-44
2022/08/07 04:04:19;;;;;;;25.33;18.48;;;17.70;71.90;;;13.60;96.82;95888.94;4932520;29;20023;-45
2022/08/07 04:06:52;;;;;;;26.13;19.85;;;17.70;71.90;;;13.60;96.52;95889.75;4916094;29;20032;-45
2022/08/07 04:09:20;;;;;;;25.83;19.95;;;17.70;71.80;;;13.59;96.95;95893.50;4932489;29;20027;-47
2022/08/07 04:11:54;;;;;;;28.35;20.83;;;17.70;71.80;;;13.62;96.79;95892.94;4933694;29;20027;-45
2022/08/07 04:14:26;;;;;;;24.65;19.33;;;17.80;72.00;;;13.65;96.64;95888.91;4916321;29;20506;-45
2022/08/07 04:16:52;;;;;;;29.43;20.83;;;17.80;71.90;;;13.65;96.49;95897.75;4931790;29;20039;-44
2022/08/07 04:19:18;;;;;;;26.08;19.35;;;17.80;71.70;;;13.63;96.06;95910.63;4921106;29;20381;-43
2022/08/07 04:22:05;;;;;;;25.98;19.52;;;17.80;71.70;;;13.64;95.91;95901.50;4921467;29;20019;-45
2022/08/07 04:24:35;;;;;;;29.00;20.73;;;17.80;71.80;;;13.62;96.27;95897.50;4932306;29;20542;-44
2022/08/07 04:27:07;;;;;;;28.52;20.10;;;17.80;71.60;;;13.63;96.36;95915.16;4884657;29;20395;-43
2022/08/07 04:29:35;;;;;;;30.27;20.10;;;17.90;71.70;;;13.66;96.11;95914.59;4916626;29;20047;-43
2022/08/07 04:32:08;;;;;;;28.40;20.70;;;17.90;71.70;;;13.68;96.20;95914.34;4916225;29;20027;-49
2022/08/07 04:34:40;;;;;;;27.23;19.50;;;17.90;71.80;;;13.70;96.45;95912.19;4932419;29;20023;-45
2022/08/07 04:37:09;;;;;;;30.42;20.58;;;18.00;71.70;;;13.73;97.48;95914.31;4916219;29;20137;-45
2022/08/07 04:39:36;;;;;;;25.33;19.45;;;18.00;71.60;;;13.79;98.01;95929.28;4933436;29;20113;-46
2022/08/07 04:42:03;;;;;;;23.55;18.83;;;18.10;71.70;;;13.87;98.07;95915.31;4933618;29;20114;-44
2022/08/07 04:44:29;;;;;;;25.30;19.65;;;18.10;71.70;;;13.96;97.77;95926.22;4933322;29;20093;-46
2022/08/07 04:47:21;;;;;;;26.30;19.02;;;18.20;71.70;;;14.05;97.70;95929.94;4981644;23;20518;-44
2022/08/07 04:50:36;;;;;;;29.02;19.70;;;18.30;72.10;;;14.16;97.36;95920.72;4957815;28;20489;-46
2022/08/07 04:53:37;;;;;;;25.98;17.92;;;18.40;72.00;;;14.26;97.11;95926.03;4973296;28;20022;-44
2022/08/07 04:56:43;;;;;;;23.85;17.63;;;18.50;71.90;;;14.41;96.71;95926.97;4965749;28;20034;-44
2022/08/07 04:59:58;;;;;;;22.50;17.90;;;18.60;71.80;;;14.53;96.09;95924.78;4954178;28;20018;-47
2022/08/07 05:02:53;;;;;;;20.85;17.95;;;18.70;71.60;;;14.61;95.80;95926.06;4971181;28;20041;-48
2022/08/07 05:06:08;;;;;;;25.67;18.80;;;18.90;71.60;;;14.72;95.08;95922.19;4971426;28;20092;-44
2022/08/07 05:09:07;;;;;;;22.15;16.55;;;19.00;71.40;;;14.78;94.42;95927.22;4963148;28;20018;-43
2022/08/07 05:11:53;;;;;;;21.75;17.27;;;19.10;71.10;;;14.83;93.93;95931.75;4970155;28;20387;-43
2022/08/07 05:14:50;;;;;;;20.73;17.65;;;19.20;70.90;;;14.89;93.72;95925.25;4971132;28;20018;-44
2022/08/07 05:17:20;;;;;;;25.10;17.02;;;19.20;70.60;;;14.97;93.45;95934.56;4969443;28;20420;-50
2022/08/07 05:19:56;;;;;;;19.40;16.75;;;19.40;70.60;;;15.04;93.46;95935.03;4969194;28;20154;-45
2022/08/07 05:22:25;;;;;;;22.95;16.40;;;19.40;70.50;;;15.09;92.77;95928.81;4953719;28;20432;-44
2022/08/07 05:24:58;;;;;;;21.98;17.55;;;19.50;70.40;;;15.13;92.33;95927.94;4953702;28;20022;-44
2022/08/07 05:27:30;;;;;;;21.05;17.83;;;19.50;70.20;;;15.19;92.28;95929.50;4969674;28;20057;-44
2022/08/07 05:29:59;;;;;;;23.17;17.10;;;19.60;70.20;;;15.24;91.34;95932.13;4974837;28;20026;-44
2022/08/07 05:32:38;;;;;;;21.77;17.30;;;19.70;69.90;;;15.29;91.02;95933.94;4952687;28;20505;-43
2022/08/07 05:35:11;;;;;;;17.85;15.60;;;19.70;69.80;;;15.35;90.67;95935.50;4969905;28;20034;-44
2022/08/07 05:37:39;;;;;;;;;;;19.80;69.60;;;15.41;90.26;95939.72;4953952;28;20473;-45
2022/08/07 05:40:14;;;;;;;18.58;15.13;;;19.80;69.30;;;15.46;90.29;95944.25;4955549;28;19905;-45
2022/08/07 05:42:42;;;;;;;20.27;16.63;;;19.90;69.10;;;15.50;89.80;95943.38;4973789;28;20026;-45
2022/08/07 05:45:24;;;;;;;19.92;15.98;;;20.00;69.10;;;15.54;89.83;95946.28;4969875;28;20034;-44
2022/08/07 05:47:55;;;;;;;17.80;15.70;;;20.00;69.20;;;15.60;89.39;95941.66;4969127;28;20053;-44
2022/08/07 05:50:23;;;;;;;19.27;14.85;;;20.10;68.90;;;15.63;89.55;95952.59;4974612;28;20453;-45
2022/08/07 05:52:49;;;;;;;19.25;15.75;;;20.20;68.80;;;15.65;89.18;95953.13;4974436;28;20073;-44
2022/08/07 05:55:16;;;;;;;18.30;14.57;;;20.10;68.50;;;15.69;88.67;95951.50;4974438;28;20459;-44
2022/08/07 05:57:45;;;;;;;17.45;14.55;;;20.20;68.40;;;15.67;88.40;95951.00;4974057;28;20022;-43
2022/08/07 06:00:13;;;;;;;19.23;14.90;;;20.30;68.30;;;15.63;88.96;95949.13;4974513;28;20026;-43
2022/08/07 06:02:40;;;;;;;18.52;14.85;;;20.30;68.00;;;15.63;88.74;95947.25;4973891;28;20030;-43
2022/08/07 06:05:14;;;;;;;17.05;13.90;;;20.40;67.80;;;15.70;88.59;95952.31;4957046;28;20046;-44
2022/08/07 06:07:41;;;;;;;16.98;14.35;;;20.40;67.70;;;15.75;88.73;95959.50;4956705;28;20022;-44
2022/08/07 06:10:11;;;;;;;19.15;14.43;;;20.50;67.60;;;15.86;88.69;95955.59;4957272;28;20022;-47
2022/08/07 06:12:37;;;;;;;16.20;13.60;;;20.50;67.60;;;15.84;87.80;95963.13;4941155;28;20117;-45
2022/08/07 06:15:05;;;;;;;18.83;14.20;;;20.50;67.40;;;15.86;88.18;95952.91;4974300;28;20105;-44
2022/08/07 06:17:35;;;;;;;19.75;14.98;;;20.50;67.30;;;15.89;88.13;95960.41;4972687;28;20030;-44
2022/08/07 06:20:08;;;;;;;18.42;14.68;;;20.50;67.30;;;15.92;88.32;95957.13;4940997;28;20022;-44
2022/08/07 06:22:38;;;;;;;19.10;15.82;;;20.60;67.40;;;15.95;88.08;95951.16;4973139;28;20311;-43
2022/08/07 06:25:05;;;;;;;17.30;14.93;;;20.60;67.40;;;15.99;87.65;95954.09;4972995;28;20129;-44
2022/08/07 06:27:31;;;;;;;19.25;14.82;;;20.60;67.20;;;16.05;87.86;95959.09;4956668;28;20025;-44
2022/08/07 06:30:00;;;;;;;18.17;16.08;;;20.60;67.20;;;16.12;87.25;95962.22;4972380;28;20030;-44
2022/08/07 06:32:35;;;;;;;17.17;15.05;;;20.60;67.10;;;16.08;86.53;95966.59;4956171;28;20061;-45
2022/08/07 06:35:08;;;;;;;18.10;15.63;;;20.70;67.00;;;16.10;86.66;95964.38;4974400;28;20237;-44
2022/08/07 06:37:39;;;;;;;19.13;15.20;;;20.70;66.80;;;16.05;86.17;95961.00;4956058;28;20025;-45
2022/08/07 06:40:09;;;;;;;22.13;15.43;;;20.70;66.50;;;16.07;86.21;95958.78;4972781;28;20030;-44
2022/08/07 06:42:38;;;;;;;19.02;15.70;;;20.70;66.40;;;16.07;86.00;95956.91;4975330;28;20031;-44
2022/08/07 06:45:15;;;;;;;17.05;15.10;;;20.70;66.30;;;16.04;85.97;95962.84;4953098;28;20026;-44
2022/08/07 06:47:42;;;;;;;17.70;14.77;;;20.70;66.20;;;16.10;85.92;95960.91;4970374;28;20038;-43
2022/08/07 06:50:10;;;;;;;18.40;15.38;;;20.80;66.10;;;16.06;86.14;95954.53;4943612;28;20032;-44
2022/08/07 06:52:47;;;;;;;17.38;14.82;;;20.80;65.90;;;16.08;85.96;95955.84;4949796;28;20021;-45
2022/08/07 06:55:27;;;;;;;17.35;14.98;;;20.80;65.80;;;16.06;86.02;95957.22;4969567;28;20268;-46
2022/08/07 06:58:01;;;;;;;18.05;14.38;;;20.90;65.60;;;16.07;85.44;95956.09;4978076;28;20033;-45
2022/08/07 07:00:38;;;;;;;16.42;13.77;;;20.90;65.50;;;16.10;85.74;95953.63;4953697;28;20087;-46
2022/08/07 07:03:07;;;;;;;16.70;14.35;;;20.90;65.40;;;16.12;85.84;95954.16;4981781;28;20030;-45
2022/08/07 07:05:33;;;;;;;15.18;13.30;;;20.90;65.30;;;16.14;85.49;95943.94;4967605;28;20031;-45
2022/08/07 07:08:02;;;;;;;19.55;15.32;;;20.90;65.20;;;16.16;85.22;95947.09;4969618;28;20552;-44
2022/08/07 07:10:34;;;;;;;17.95;14.27;;;20.90;65.20;;;16.18;84.84;95950.31;4954980;28;20042;-43
2022/08/07 07:13:39;;;;;;;16.92;13.60;;;20.90;65.10;;;16.21;84.71;95948.94;4968371;28;20104;-43
2022/08/07 07:16:20;;;;;;;17.42;13.57;;;20.90;65.10;;;16.18;84.68;95954.88;4964065;28;20034;-46
2022/08/07 07:19:04;;;;;;;16.10;13.60;;;21.00;65.00;;;16.18;84.64;95954.88;4953893;28;20031;-43
2022/08/07 07:21:39;;;;;;;16.38;13.65;;;20.90;64.90;;;16.16;84.72;95951.69;4970368;28;20461;-43
2022/08/07 07:24:09;;;;;;;17.42;13.27;;;20.90;64.90;;;16.18;84.96;95952.19;4965488;28;20029;-45
2022/08/07 07:26:39;;;;;;;18.45;14.32;;;20.80;64.90;;;16.15;84.70;95950.88;4954151;28;20030;-45
2022/08/07 07:29:16;;;;;;;16.40;14.38;;;20.80;64.90;;;16.14;85.13;95951.19;4939398;28;20116;-42
2022/08/07 07:31:50;;;;;;;15.27;13.23;;;20.80;64.90;;;16.22;84.94;95947.84;4968632;28;20030;-43
2022/08/07 07:34:29;;;;;;;19.45;14.48;;;20.80;64.90;;;16.26;84.81;95948.03;4952974;28;20421;-44
2022/08/07 07:37:01;;;;;;;15.90;14.23;;;20.90;64.90;;;16.22;84.99;95953.22;4976885;28;20022;-48
2022/08/07 07:39:32;;;;;;;18.60;13.73;;;20.90;65.70;;;16.24;84.95;95963.69;4956036;28;20053;-46
2022/08/07 07:42:03;;;;;;;15.27;13.48;;;20.90;64.80;;;16.25;84.51;95952.63;4950969;28;20037;-45
2022/08/07 07:44:34;;;;;;;15.30;12.73;;;20.90;64.70;;;16.24;84.38;95953.72;4949446;28;20040;-46
2022/08/07 07:47:02;;;;;;;15.95;12.77;;;20.90;64.60;;;16.20;83.95;95950.00;4960203;28;20050;-44
2022/08/07 07:49:33;;;;;;;16.55;12.77;;;20.90;64.60;;;16.22;84.25;95960.47;4948218;28;20030;-44
2022/08/07 07:52:02;;;;;;;15.50;13.13;;;20.90;64.50;;;16.17;84.53;95959.47;4951785;28;20089;-43
2022/08/07 07:54:31;;;;;;;15.40;12.88;;;20.90;64.40;;;16.18;84.50;95962.94;4966342;28;20544;-43
2022/08/07 07:57:00;;;;;;;16.38;13.32;;;20.90;64.50;;;16.19;84.30;95959.97;4939464;28;20033;-43
2022/08/07 07:59:29;;;;;;;15.15;13.05;;;20.90;64.40;;;16.15;84.56;95964.31;4918433;28;20027;-43
2022/08/07 08:01:58;;;;;;;14.00;12.48;;;20.90;64.40;;;16.25;84.43;95955.31;4948720;28;20057;-43
2022/08/07 08:04:29;;;;;;;14.10;12.45;;;20.90;64.40;;;16.25;84.02;95957.22;4952846;28;20026;-43
2022/08/07 08:07:02;;;;;;;14.30;12.15;;;20.90;64.40;;;16.34;83.82;95963.53;4955778;28;20030;-44
2022/08/07 08:09:32;;;;;;;13.27;11.85;;;21.00;64.40;;;16.37;84.08;95961.03;4949330;28;20037;-45
2022/08/07 08:12:02;;;;;;;15.70;13.05;;;21.00;64.30;;;16.37;83.78;95957.56;4932021;28;20038;-43
2022/08/07 08:14:34;;;;;;;15.50;12.32;;;21.00;64.30;;;16.37;83.67;95965.63;4947717;28;20493;-43
2022/08/07 08:17:06;;;;;;;17.27;12.97;;;21.10;64.20;;;16.42;83.29;95962.84;4949115;28;20027;-43
2022/08/07 08:19:37;;;;;;;14.60;12.13;;;21.10;64.10;;;16.42;82.99;95962.84;4949342;28;20677;-43
2022/08/07 08:27:50;;;;;;;13.43;12.02;;;21.20;63.60;;;16.41;83.07;95964.75;4939309;28;20049;-43
2022/08/07 08:30:23;;;;;;;14.07;12.07;;;21.30;63.50;;;16.44;82.58;95960.69;4966717;28;20374;-43
2022/08/07 08:33:05;;;;;;;16.77;11.73;;;21.30;63.40;;;16.49;82.92;95962.50;4913778;29;20023;-44
2022/08/07 08:35:37;;;;;;;12.85;11.30;;;21.30;63.50;;;16.54;82.55;95968.56;4960010;28;20807;-43
2022/08/07 08:38:15;;;;;;;14.10;11.95;;;21.30;63.30;;;16.59;82.09;95970.41;4950204;28;20061;-43
2022/08/07 08:41:23;;;;;;;13.73;11.65;;;21.30;63.30;;;16.62;82.61;95965.22;4951264;28;20109;-44
2022/08/07 08:44:56;;;;;;;14.00;11.70;;;21.40;63.30;;;16.71;81.58;95970.75;4951304;28;20034;-43
2022/08/07 08:48:31;;;;;;;12.43;10.77;;;21.50;63.10;;;16.78;81.85;95973.09;4954118;28;20133;-43
2022/08/07 08:51:27;;;;;;;14.70;10.68;;;21.60;62.90;;;16.84;81.49;95975.41;4935957;28;20042;-46
2022/08/07 08:54:19;;;;;;;16.38;10.75;;;21.60;62.70;;;16.92;80.81;95979.28;4946731;28;20027;-43
2022/08/07 08:56:53;;;;;;;14.27;10.95;;;21.70;62.70;;;16.94;80.51;95987.88;4949413;28;20037;-43
2022/08/07 09:00:03;;;;;;;12.52;11.23;;;21.80;62.40;;;16.97;80.18;95981.91;4966396;28;20532;-43
2022/08/07 09:02:57;;;;;;;11.98;10.20;;;21.90;62.20;;;16.98;80.30;95985.38;4951071;28;20031;-43
2022/08/07 09:05:40;;;;;;;15.02;10.82;;;22.00;62.00;;;17.14;79.99;95985.94;4950763;28;20526;-43
2022/08/07 09:08:52;;;;;;;12.15;10.27;;;22.00;61.80;;;17.21;80.07;95978.28;4955323;28;20031;-45
2022/08/07 09:11:40;;;;;;;12.15;10.88;;;22.10;61.70;;;17.34;79.95;95982.88;4950736;28;20030;-44
2022/08/07 09:14:44;;;;;;;14.15;10.27;;;22.20;61.60;;;17.43;79.38;95986.47;4958055;28;20019;-44
2022/08/07 09:17:41;;;;;;;;;;;22.20;61.50;;;17.50;79.17;95992.25;4952999;28;20023;-45
2022/08/07 09:21:05;;;;;;;10.85;9.32;;;22.30;61.40;;;17.55;78.41;95983.31;4947666;28;19906;-45
2022/08/07 09:24:07;;;;;;;11.57;9.32;;;22.50;61.10;;;17.66;78.54;95990.06;4961691;28;20027;-43
2022/08/07 09:27:15;;;;;;;10.65;9.57;;;22.60;60.90;;;17.79;78.02;95985.81;4954146;28;20034;-48
2022/08/07 09:30:06;;;;;;;10.55;8.68;;;22.70;60.70;;;17.90;77.53;95991.78;4954139;28;20565;-48
2022/08/07 09:33:31;;;;;;;11.48;9.82;;;22.80;60.30;;;18.04;77.27;95989.88;4954013;28;20026;-46
2022/08/07 09:36:40;;;;;;;10.13;9.10;;;23.00;60.20;;;18.21;76.12;95992.75;4950934;28;20029;-44
2022/08/07 09:39:26;;;;;;;9.82;8.77;;;23.10;59.90;;;18.31;75.76;95999.00;4950252;28;20022;-46
2022/08/07 09:42:16;;;;;;;9.65;8.38;;;23.30;59.60;;;18.40;75.66;95994.50;4967838;28;20034;-43
2022/08/07 09:44:59;;;;;;;9.65;8.05;;;23.40;59.40;;;18.56;74.93;95989.56;4953025;28;20481;-43
2022/08/07 09:48:16;;;;;;;10.38;8.50;;;23.50;59.10;;;18.65;73.79;95988.50;4962912;28;20509;-43
2022/08/07 09:51:40;;;;;;;9.23;7.95;;;23.70;59.40;;;18.76;73.93;95997.19;4948642;28;20108;-46
2022/08/07 09:54:35;;;;;;;12.07;8.25;;;23.90;58.50;;;18.86;73.44;95985.34;4944597;28;20077;-42
2022/08/07 09:57:35;;;;;;;9.75;8.10;;;24.00;58.10;;;18.97;73.44;95992.09;4955039;28;20501;-44
2022/08/07 10:00:08;;;;;;;8.65;7.80;;;24.20;57.90;;;18.97;72.55;95984.00;4952003;28;20042;-43
2022/08/07 10:03:41;;;;;;;9.63;8.63;;;24.30;57.50;;;19.07;72.51;95986.44;4954625;28;20019;-46
2022/08/07 10:07:11;;;;;;;11.55;7.68;;;24.40;57.50;;;19.11;72.62;95981.22;4933165;28;20039;-45
2022/08/07 10:10:27;;;;;;;8.13;7.32;;;24.50;57.30;;;19.05;72.73;95985.13;4944548;28;20038;-44
2022/08/07 10:14:08;;;;;;;9.32;8.35;;;24.50;57.00;;;19.03;73.16;95988.16;4954849;28;20027;-45
2022/08/07 10:17:18;;;;;;;8.65;7.75;;;24.50;56.90;;;19.14;72.20;95988.69;4954827;28;20046;-45
2022/08/07 10:20:20;;;;;;;8.63;7.43;;;24.50;56.70;;;19.12;72.71;95985.53;4953481;28;20023;-44
2022/08/07 10:23:38;;;;;;;9.63;7.40;;;24.50;56.60;;;19.25;71.81;95978.44;4953628;28;20077;-46
2022/08/07 10:27:09;;;;;;;7.97;7.18;;;24.50;56.60;;;19.34;71.63;95977.38;4952404;28;20405;-46
2022/08/07 10:30:12;;;;;;;8.27;6.95;;;24.60;56.60;;;19.36;71.57;95974.34;4954741;28;20444;-43
2022/08/07 10:33:39;;;;;;;8.05;7.20;;;24.60;56.30;;;19.38;71.86;95972.16;4954768;28;20081;-43
2022/08/07 10:36:53;;;;;;;8.05;7.22;;;24.60;56.20;;;19.48;71.66;95977.25;4953023;28;20023;-44
2022/08/07 10:40:01;;;;;;;7.85;7.05;;;24.70;56.10;;;19.47;70.93;95981.09;4952782;28;20102;-44
2022/08/07 10:43:04;;;;;;;7.45;6.72;;;24.80;56.00;;;19.52;71.26;95980.94;4954165;28;20112;-44
2022/08/07 10:45:43;;;;;;;7.90;7.10;;;24.80;55.90;;;19.58;71.50;95976.97;4939299;28;20027;-44
2022/08/07 10:48:45;;;;;;;7.28;6.40;;;24.80;56.00;;;19.55;71.24;95977.59;4998337;23;20112;-45
2022/08/07 10:52:32;;;;;;;6.85;6.15;;;24.80;55.80;;;19.63;70.43;95974.16;4973630;28;20475;-51
2022/08/07 10:55:22;;;;;;;9.00;6.68;;;24.90;55.80;;;19.53;70.93;95973.66;4972800;28;20026;-49
2022/08/07 10:58:43;;;;;;;6.40;5.90;;;24.80;55.50;;;19.67;70.99;95968.16;4974941;28;20034;-52
2022/08/07 11:01:55;;;;;;;8.07;6.10;;;24.90;55.70;;;19.91;70.65;95973.16;4946692;28;20489;-45
2022/08/07 11:05:14;;;;;;;6.40;5.63;;;24.90;55.60;;;19.99;69.07;95970.44;4966872;28;20027;-49